Time;durP1;ratioP1;P1;durP2;ratioP2;P2;SDS_P1;SDS_P2;PMS_P1;PMS_P2;Temp;Humidity;BMP_temperature;BMP_pressure;BME280_temperature;BME280_humidity;BME280_pressure;Samples;Min_cycle;Max_cycle;Signal;HPM_P1;HPM_P2
2021/03/18 00:02:11;;;;;;;8.10;4.18;;;;;;;;;;5004080;28;20167;-85
2021/03/18 00:04:56;;;;;;;7.28;3.45;;;;;;;;;;4985334;28;20427;-83
2021/03/18 00:07:42;;;;;;;13.27;4.18;;;;;;;;;;5005173;28;20030;-83
2021/03/18 00:10:27;;;;;;;9.05;4.07;;;;;;;;;;5002314;28;20515;-83
2021/03/18 00:13:12;;;;;;;9.07;4.35;;;;;;;;;;5018455;28;20362;-84
2021/03/18 00:15:58;;;;;;;9.32;4.22;;;;;;;;;;4997463;28;20022;-83
2021/03/18 00:18:45;;;;;;;9.45;4.55;;;;;;;;;;4983922;28;20030;-83
2021/03/18 00:21:30;;;;;;;9.27;4.65;;;;;;;;;;5001246;28;20053;-82
2021/03/18 00:24:16;;;;;;;11.38;4.10;;;;;;;;;;4995114;28;20033;-83
2021/03/18 00:27:02;;;;;;;19.92;5.03;;;;;;;;;;5002726;28;20033;-82
2021/03/18 00:29:47;;;;;;;9.30;3.90;;;;;;;;;;5003808;28;20032;-84
2021/03/18 00:32:33;;;;;;;6.93;4.57;;;;;;;;;;5017096;28;20022;-82
2021/03/18 00:35:19;;;;;;;6.70;3.85;;;;;;;;;;5005110;28;20432;-82
2021/03/18 00:38:04;;;;;;;7.78;3.42;;;;;;;;;;5002252;28;20018;-81
2021/03/18 00:40:51;;;;;;;6.97;4.00;;;;;;;;;;5003865;28;20033;-81
2021/03/18 00:43:37;;;;;;;7.72;4.10;;;;;;;;;;5003196;28;20144;-81
2021/03/18 00:46:23;;;;;;;8.00;4.07;;;;;;;;;;5001378;28;20761;-81
2021/03/18 00:49:08;;;;;;;7.78;3.90;;;;;;;;;;4998567;28;20021;-83
2021/03/18 00:51:53;;;;;;;7.18;4.28;;;;;;;;;;5010326;28;20014;-84
2021/03/18 00:54:39;;;;;;;12.63;4.85;;;;;;;;;;5018603;28;20120;-84
2021/03/18 00:57:24;;;;;;;10.68;4.22;;;;;;;;;;5006325;28;20373;-85
2021/03/18 01:00:14;;;;;;;10.73;4.10;;;;;;;;;;4992066;28;20149;-82
2021/03/18 01:02:59;;;;;;;10.93;4.32;;;;;;;;;;5000634;28;20042;-83
2021/03/18 01:05:47;;;;;;;7.68;4.03;;;;;;;;;;5004757;28;20111;-84
2021/03/18 01:08:33;;;;;;;7.25;4.00;;;;;;;;;;5001978;28;20034;-85
2021/03/18 01:11:26;;;;;;;11.82;4.82;;;;;;;;;;4997097;28;20481;-84
2021/03/18 01:14:12;;;;;;;11.68;4.85;;;;;;;;;;5016188;28;20107;-84
2021/03/18 01:16:57;;;;;;;8.38;4.28;;;;;;;;;;5018844;28;20032;-84
2021/03/18 01:19:42;;;;;;;9.20;4.95;;;;;;;;;;5018490;28;20073;-83
2021/03/18 01:22:28;;;;;;;8.45;4.20;;;;;;;;;;5020678;28;20025;-83
2021/03/18 01:25:13;;;;;;;9.07;4.50;;;;;;;;;;5008399;28;20030;-83
2021/03/18 01:27:59;;;;;;;6.93;3.88;;;;;;;;;;5003971;28;20050;-83
2021/03/18 01:30:44;;;;;;;9.57;4.38;;;;;;;;;;5000796;28;20879;-83
2021/03/18 01:33:29;;;;;;;6.93;4.32;;;;;;;;;;4989663;28;20034;-83
2021/03/18 01:36:14;;;;;;;8.07;3.90;;;;;;;;;;5006575;28;20029;-83
2021/03/18 01:39:00;;;;;;;10.02;5.15;;;;;;;;;;5002486;28;20480;-84
2021/03/18 01:41:45;;;;;;;6.57;4.10;;;;;;;;;;5002879;28;20032;-82
2021/03/18 01:44:30;;;;;;;16.67;5.78;;;;;;;;;;5006485;28;20015;-84
2021/03/18 01:47:16;;;;;;;8.93;4.25;;;;;;;;;;5022039;28;20030;-81
2021/03/18 01:50:02;;;;;;;11.55;4.40;;;;;;;;;;5004786;28;20109;-83
2021/03/18 01:52:47;;;;;;;10.32;4.82;;;;;;;;;;5005315;28;20080;-82
2021/03/18 01:55:37;;;;;;;12.10;4.53;;;;;;;;;;5002195;28;20030;-83
2021/03/18 01:58:22;;;;;;;6.95;4.00;;;;;;;;;;5009666;28;20107;-84
2021/03/18 02:01:09;;;;;;;7.05;4.13;;;;;;;;;;5006360;28;20141;-82
2021/03/18 02:03:55;;;;;;;6.95;4.45;;;;;;;;;;5023433;28;20025;-82
2021/03/18 02:06:40;;;;;;;10.57;4.30;;;;;;;;;;5010375;28;20033;-84
2021/03/18 02:09:25;;;;;;;7.97;4.65;;;;;;;;;;5002421;28;20500;-83
2021/03/18 02:12:11;;;;;;;8.93;4.47;;;;;;;;;;5025898;28;20038;-83
2021/03/18 02:14:56;;;;;;;9.05;5.38;;;;;;;;;;5004778;28;20022;-82
2021/03/18 02:17:47;;;;;;;8.93;4.63;;;;;;;;;;5018338;28;20034;-84
2021/03/18 02:20:51;;;;;;;9.23;4.35;;;;;;;;;;5006723;28;20069;-83
2021/03/18 02:23:51;;;;;;;8.85;4.35;;;;;;;;;;5008432;28;20483;-83
2021/03/18 02:26:55;;;;;;;7.45;4.30;;;;;;;;;;5006527;28;20045;-83
2021/03/18 02:29:55;;;;;;;9.13;4.25;;;;;;;;;;5018154;28;20126;-84
2021/03/18 02:32:59;;;;;;;10.23;4.88;;;;;;;;;;5019382;28;20040;-83
2021/03/18 02:35:45;;;;;;;10.77;4.40;;;;;;;;;;5002898;28;20038;-84
2021/03/18 02:38:32;;;;;;;8.27;3.85;;;;;;;;;;5021556;28;20034;-83
2021/03/18 02:41:19;;;;;;;10.30;4.53;;;;;;;;;;5003282;28;20025;-84
2021/03/18 02:44:25;;;;;;;10.63;4.18;;;;;;;;;;5019268;28;20391;-84
2021/03/18 02:47:11;;;;;;;8.90;5.10;;;;;;;;;;5003183;28;20507;-83
2021/03/18 02:49:57;;;;;;;7.97;4.15;;;;;;;;;;5017114;28;20478;-82
2021/03/18 02:52:43;;;;;;;9.07;4.85;;;;;;;;;;5003434;28;20472;-83
2021/03/18 02:55:30;;;;;;;8.38;4.78;;;;;;;;;;5005009;28;20435;-84
2021/03/18 02:58:17;;;;;;;11.82;4.30;;;;;;;;;;5004494;28;20026;-84
2021/03/18 03:01:04;;;;;;;7.55;4.20;;;;;;;;;;5021944;28;20014;-84
2021/03/18 03:03:49;;;;;;;7.28;3.95;;;;;;;;;;5003688;28;20030;-85
2021/03/18 03:06:35;;;;;;;6.88;3.63;;;;;;;;;;4999460;28;20065;-83
2021/03/18 03:09:21;;;;;;;6.68;3.20;;;;;;;;;;5000839;28;20022;-83
2021/03/18 03:12:07;;;;;;;6.78;3.78;;;;;;;;;;4990800;28;20032;-82
2021/03/18 03:14:53;;;;;;;11.38;4.25;;;;;;;;;;5012975;28;20037;-83
2021/03/18 03:17:39;;;;;;;7.68;4.00;;;;;;;;;;5001118;28;20042;-84
2021/03/18 03:20:25;;;;;;;8.32;4.07;;;;;;;;;;4996264;28;20107;-86
2021/03/18 03:23:11;;;;;;;7.65;3.53;;;;;;;;;;4985069;28;20049;-84
2021/03/18 03:25:58;;;;;;;7.90;3.97;;;;;;;;;;5008613;28;20068;-82
2021/03/18 03:28:44;;;;;;;7.97;4.18;;;;;;;;;;5007563;28;20097;-84
2021/03/18 03:31:29;;;;;;;13.15;5.03;;;;;;;;;;5007303;28;20030;-85
2021/03/18 03:34:14;;;;;;;7.78;3.97;;;;;;;;;;5000238;28;20092;-82
2021/03/18 03:37:00;;;;;;;5.78;3.88;;;;;;;;;;5017047;28;20057;-82
2021/03/18 03:39:45;;;;;;;9.98;4.88;;;;;;;;;;5004369;28;20022;-83
2021/03/18 03:42:31;;;;;;;11.63;4.55;;;;;;;;;;5005153;28;20033;-83
2021/03/18 03:45:16;;;;;;;8.50;4.60;;;;;;;;;;5005278;28;20113;-83
2021/03/18 03:48:02;;;;;;;9.05;3.80;;;;;;;;;;5018599;28;20084;-83
2021/03/18 03:50:47;;;;;;;8.32;4.35;;;;;;;;;;5004603;28;20030;-83
2021/03/18 03:53:52;;;;;;;8.68;4.13;;;;;;;;;;5002442;28;20036;-83
2021/03/18 03:56:51;;;;;;;15.00;5.85;;;;;;;;;;5006215;28;20036;-83
2021/03/18 03:59:38;;;;;;;7.68;4.28;;;;;;;;;;4991162;28;20034;-83
2021/03/18 04:02:25;;;;;;;7.53;3.55;;;;;;;;;;5005522;28;20018;-84
2021/03/18 04:05:12;;;;;;;5.88;3.55;;;;;;;;;;5002910;28;20033;-82
2021/03/18 04:08:00;;;;;;;7.15;3.92;;;;;;;;;;5005215;28;20034;-83
2021/03/18 04:10:45;;;;;;;7.30;4.05;;;;;;;;;;5005669;28;20515;-84
2021/03/18 04:13:32;;;;;;;8.40;3.95;;;;;;;;;;5016729;28;20029;-83
2021/03/18 04:16:21;;;;;;;7.60;4.32;;;;;;;;;;5004305;28;20130;-84
2021/03/18 04:19:07;;;;;;;8.35;4.22;;;;;;;;;;5016616;28;20018;-84
2021/03/18 04:21:53;;;;;;;6.75;4.13;;;;;;;;;;5007755;28;20460;-84
2021/03/18 04:24:40;;;;;;;7.25;4.45;;;;;;;;;;4981345;28;20045;-84
2021/03/18 04:27:27;;;;;;;7.22;4.10;;;;;;;;;;5002968;28;20434;-84
2021/03/18 04:30:13;;;;;;;8.93;4.10;;;;;;;;;;4993735;28;21574;-83
2021/03/18 04:32:58;;;;;;;9.13;3.28;;;;;;;;;;5018307;28;20076;-83
2021/03/18 04:35:43;;;;;;;8.93;4.70;;;;;;;;;;4994187;28;20083;-82
2021/03/18 04:38:30;;;;;;;7.78;3.65;;;;;;;;;;5001601;28;20081;-83
2021/03/18 04:41:16;;;;;;;7.25;4.53;;;;;;;;;;4994336;28;20460;-83
2021/03/18 04:44:01;;;;;;;10.70;3.85;;;;;;;;;;5004104;28;20453;-83
2021/03/18 04:46:47;;;;;;;10.07;4.88;;;;;;;;;;5002572;28;20041;-82
2021/03/18 04:49:32;;;;;;;8.20;3.92;;;;;;;;;;5006410;28;20094;-83
2021/03/18 04:52:18;;;;;;;8.43;4.50;;;;;;;;;;5001651;28;20452;-83
2021/03/18 04:55:04;;;;;;;5.28;3.40;;;;;;;;;;5007568;28;20053;-84
2021/03/18 04:57:55;;;;;;;10.15;3.92;;;;;;;;;;5008083;28;20108;-83
2021/03/18 05:00:41;;;;;;;6.85;3.55;;;;;;;;;;5016326;28;20037;-83
2021/03/18 05:03:27;;;;;;;6.03;3.75;;;;;;;;;;5013735;28;20021;-84
2021/03/18 05:06:13;;;;;;;8.10;4.10;;;;;;;;;;4994660;28;20032;-84
2021/03/18 05:09:01;;;;;;;7.25;3.80;;;;;;;;;;5004183;28;20018;-84
2021/03/18 05:11:47;;;;;;;12.50;3.58;;;;;;;;;;5000216;28;20404;-84
2021/03/18 05:14:32;;;;;;;9.07;3.78;;;;;;;;;;5017285;28;20068;-82
2021/03/18 05:17:18;;;;;;;5.93;3.47;;;;;;;;;;5006215;28;20033;-83
2021/03/18 05:20:07;;;;;;;7.65;3.90;;;;;;;;;;5022515;28;20058;-84
2021/03/18 05:22:53;;;;;;;8.57;4.15;;;;;;;;;;5010512;28;20036;-81
2021/03/18 05:25:38;;;;;;;10.88;3.85;;;;;;;;;;5029634;28;20041;-82
2021/03/18 05:28:24;;;;;;;9.85;4.15;;;;;;;;;;5008025;28;20056;-82
2021/03/18 05:31:09;;;;;;;11.02;4.47;;;;;;;;;;5019923;28;20024;-82
2021/03/18 05:33:54;;;;;;;9.30;4.50;;;;;;;;;;4992159;28;20113;-82
2021/03/18 05:36:40;;;;;;;8.60;4.00;;;;;;;;;;5017946;28;20034;-83
2021/03/18 05:39:25;;;;;;;10.18;4.25;;;;;;;;;;5001707;28;20025;-82
2021/03/18 05:42:10;;;;;;;8.77;3.92;;;;;;;;;;5023182;28;20117;-82
2021/03/18 05:44:55;;;;;;;7.55;4.35;;;;;;;;;;5025157;28;20129;-82
2021/03/18 05:47:41;;;;;;;9.32;3.85;;;;;;;;;;5006084;28;20037;-81
2021/03/18 05:50:26;;;;;;;7.78;4.25;;;;;;;;;;5006910;28;20026;-83
2021/03/18 05:53:12;;;;;;;9.02;4.10;;;;;;;;;;4992506;28;20083;-84
2021/03/18 05:55:59;;;;;;;7.97;3.88;;;;;;;;;;5037976;28;20083;-84
2021/03/18 05:58:48;;;;;;;10.10;3.88;;;;;;;;;;5019242;28;20033;-83
2021/03/18 06:01:33;;;;;;;8.57;3.60;;;;;;;;;;5030389;28;20038;-84
2021/03/18 06:04:19;;;;;;;11.13;4.57;;;;;;;;;;5022050;28;20522;-84
2021/03/18 06:07:04;;;;;;;8.65;4.20;;;;;;;;;;5004627;28;20025;-85
2021/03/18 06:09:49;;;;;;;14.00;4.38;;;;;;;;;;5008590;28;20376;-87
2021/03/18 06:12:37;;;;;;;7.50;3.58;;;;;;;;;;5008127;28;20017;-85
2021/03/18 06:15:23;;;;;;;9.77;3.88;;;;;;;;;;5011638;28;20528;-83
2021/03/18 06:18:11;;;;;;;8.80;3.55;;;;;;;;;;5007086;28;20022;-83
2021/03/18 06:20:56;;;;;;;13.07;5.05;;;;;;;;;;5005408;28;20454;-82
2021/03/18 06:23:57;;;;;;;10.65;4.47;;;;;;;;;;5018973;28;20018;-82
2021/03/18 06:26:43;;;;;;;9.30;4.03;;;;;;;;;;5000230;28;20030;-87
2021/03/18 06:29:35;;;;;;;7.30;4.00;;;;;;;;;;5017947;28;20158;-84
2021/03/18 06:32:21;;;;;;;9.70;4.30;;;;;;;;;;5009830;28;20017;-87
2021/03/18 06:35:08;;;;;;;8.25;4.60;;;;;;;;;;5002972;28;20504;-84
2021/03/18 06:37:54;;;;;;;9.00;4.63;;;;;;;;;;5007698;28;20036;-85
2021/03/18 06:40:40;;;;;;;10.23;4.35;;;;;;;;;;5022780;28;20030;-84
2021/03/18 06:43:35;;;;;;;9.30;3.95;;;;;;;;;;5011174;28;20025;-86
2021/03/18 06:46:21;;;;;;;8.57;3.83;;;;;;;;;;5006747;28;20022;-86
2021/03/18 06:49:13;;;;;;;9.65;4.50;;;;;;;;;;5023278;28;20435;-87
2021/03/18 06:52:03;;;;;;;9.73;4.78;;;;;;;;;;5008481;28;20484;-86
2021/03/18 06:54:48;;;;;;;;;;;;;;;;;;5012342;28;20037;-89
2021/03/18 06:57:34;;;;;;;8.40;4.05;;;;;;;;;;5014209;28;19916;-85
2021/03/18 07:00:33;;;;;;;8.80;4.38;;;;;;;;;;5015515;28;20025;-88
2021/03/18 07:03:29;;;;;;;11.10;4.70;;;;;;;;;;5030346;28;20101;-87
2021/03/18 07:06:30;;;;;;;12.55;5.28;;;;;;;;;;5007991;28;20034;-88
2021/03/18 07:09:16;;;;;;;8.23;4.68;;;;;;;;;;5024232;28;20023;-85
2021/03/18 07:12:03;;;;;;;14.98;4.63;;;;;;;;;;5024421;28;20026;-85
2021/03/18 07:14:49;;;;;;;11.85;4.78;;;;;;;;;;5010384;28;20045;-85
2021/03/18 07:17:36;;;;;;;10.00;4.55;;;;;;;;;;5014731;28;20031;-85
2021/03/18 07:20:22;;;;;;;9.25;4.72;;;;;;;;;;5018988;28;20048;-84
2021/03/18 07:23:16;;;;;;;120.10;72.25;;;;;;;;;;5005006;28;20052;-85
2021/03/18 07:26:10;;;;;;;23.23;15.50;;;;;;;;;;5020384;28;20096;-86
2021/03/18 07:29:14;;;;;;;11.02;5.25;;;;;;;;;;4999332;28;20022;-83
2021/03/18 07:31:59;;;;;;;9.73;4.72;;;;;;;;;;5017416;28;20056;-86
2021/03/18 07:34:44;;;;;;;12.88;4.93;;;;;;;;;;5021436;28;20036;-84
2021/03/18 07:37:30;;;;;;;14.57;4.85;;;;;;;;;;5005896;28;20036;-84
2021/03/18 07:40:15;;;;;;;6.72;4.03;;;;;;;;;;5017493;28;20084;-85
2021/03/18 07:43:02;;;;;;;12.27;4.80;;;;;;;;;;5003359;28;20025;-84
2021/03/18 07:45:48;;;;;;;7.72;4.57;;;;;;;;;;5012535;28;20183;-84
2021/03/18 07:48:39;;;;;;;10.68;4.57;;;;;;;;;;5006336;28;20080;-86
2021/03/18 07:51:25;;;;;;;12.38;5.72;;;;;;;;;;5003741;28;20076;-83
2021/03/18 07:54:17;;;;;;;11.82;5.30;;;;;;;;;;4997253;28;20079;-84
2021/03/18 07:57:12;;;;;;;7.25;4.13;;;;;;;;;;5007918;28;20428;-85
2021/03/18 08:00:07;;;;;;;21.27;12.73;;;;;;;;;;5005019;28;20032;-84
2021/03/18 08:03:08;;;;;;;9.38;5.47;;;;;;;;;;5001972;28;20030;-83
2021/03/18 08:05:54;;;;;;;9.48;4.55;;;;;;;;;;5019083;28;20145;-83
2021/03/18 08:08:41;;;;;;;9.18;5.43;;;;;;;;;;5003114;28;20505;-86
2021/03/18 08:11:56;;;;;;;11.02;5.28;;;;;;;;;;5009669;28;20399;-85
2021/03/18 08:18:52;;;;;;;12.95;8.35;;;;;;;;;;4947512;28;20046;-87
2021/03/18 08:21:41;;;;;;;10.75;5.68;;;;;;;;;;5028700;28;20088;-91
2021/03/18 08:24:36;;;;;;;9.18;5.50;;;;;;;;;;5010694;28;20481;-88
2021/03/18 08:27:27;;;;;;;12.55;5.63;;;;;;;;;;5002243;28;20130;-86
2021/03/18 08:30:21;;;;;;;10.95;5.75;;;;;;;;;;4993772;28;20060;-87
2021/03/18 08:33:25;;;;;;;12.05;5.63;;;;;;;;;;5006928;28;20125;-88
2021/03/18 08:36:31;;;;;;;10.70;5.82;;;;;;;;;;4989732;28;20026;-86
2021/03/18 08:39:36;;;;;;;12.40;6.50;;;;;;;;;;4989299;28;20061;-86
2021/03/18 08:42:28;;;;;;;12.27;5.65;;;;;;;;;;4995805;28;20025;-90
2021/03/18 08:45:23;;;;;;;10.20;5.45;;;;;;;;;;5010227;28;20057;-89
2021/03/18 08:48:36;;;;;;;12.07;7.18;;;;;;;;;;5010941;28;20034;-91
2021/03/18 08:51:38;;;;;;;12.43;6.70;;;;;;;;;;4941733;28;20594;-91
2021/03/18 08:57:25;;;;;;;10.70;5.53;;;;;;;;;;4941599;29;20402;-88
2021/03/18 09:00:20;;;;;;;10.38;6.50;;;;;;;;;;5005333;28;20041;-88
2021/03/18 09:03:08;;;;;;;10.32;6.75;;;;;;;;;;5024002;28;20040;-91
2021/03/18 09:05:55;;;;;;;9.82;5.25;;;;;;;;;;5006734;28;20461;-89
2021/03/18 09:08:40;;;;;;;10.90;5.82;;;;;;;;;;5022265;28;20030;-88
2021/03/18 09:11:26;;;;;;;14.35;5.65;;;;;;;;;;5026719;28;20053;-89
2021/03/18 09:14:18;;;;;;;10.25;5.45;;;;;;;;;;5035558;28;20022;-84
2021/03/18 09:17:04;;;;;;;11.68;7.38;;;;;;;;;;5013740;28;20044;-90
2021/03/18 09:19:52;;;;;;;24.15;16.10;;;;;;;;;;5015743;28;20097;-91
2021/03/18 09:22:48;;;;;;;11.40;7.22;;;;;;;;;;5011671;28;20094;-89
2021/03/18 09:25:36;;;;;;;13.40;6.05;;;;;;;;;;5009129;28;20493;-89
2021/03/18 09:28:35;;;;;;;12.05;6.30;;;;;;;;;;5003275;28;20116;-87
2021/03/18 09:31:21;;;;;;;10.73;5.47;;;;;;;;;;4994507;28;20025;-87
2021/03/18 09:34:07;;;;;;;9.85;5.45;;;;;;;;;;4987204;28;20052;-88
2021/03/18 09:36:53;;;;;;;8.50;5.50;;;;;;;;;;5012796;28;20022;-85
2021/03/18 09:39:47;;;;;;;9.88;5.85;;;;;;;;;;5001693;28;20049;-84
2021/03/18 09:42:35;;;;;;;12.95;6.18;;;;;;;;;;5015901;28;20465;-85
2021/03/18 09:45:21;;;;;;;12.25;6.10;;;;;;;;;;4996689;28;20031;-83
2021/03/18 09:48:07;;;;;;;13.00;6.25;;;;;;;;;;4990117;28;20473;-83
2021/03/18 09:50:53;;;;;;;11.50;5.72;;;;;;;;;;4996185;28;20022;-86
2021/03/18 09:53:40;;;;;;;11.90;6.40;;;;;;;;;;4975916;28;20022;-87
2021/03/18 09:56:26;;;;;;;12.43;6.18;;;;;;;;;;4996238;28;20018;-82
2021/03/18 09:59:11;;;;;;;12.88;6.07;;;;;;;;;;4991169;28;20462;-82
2021/03/18 10:01:57;;;;;;;12.50;6.28;;;;;;;;;;5000391;28;20057;-81
2021/03/18 10:04:43;;;;;;;10.52;5.68;;;;;;;;;;4992633;28;20049;-82
2021/03/18 10:07:30;;;;;;;9.43;5.65;;;;;;;;;;4994920;28;20029;-82
2021/03/18 10:10:18;;;;;;;10.88;5.13;;;;;;;;;;4996388;28;20022;-83
2021/03/18 10:13:03;;;;;;;9.40;4.97;;;;;;;;;;5010534;28;20018;-81
2021/03/18 10:15:49;;;;;;;10.27;4.28;;;;;;;;;;5002330;28;20024;-89
2021/03/18 10:18:38;;;;;;;12.40;8.10;;;;;;;;;;4991896;28;20112;-85
2021/03/18 10:21:24;;;;;;;8.75;4.60;;;;;;;;;;5000672;28;20065;-85
2021/03/18 10:24:10;;;;;;;5.80;4.18;;;;;;;;;;4996708;28;20549;-87
2021/03/18 10:27:05;;;;;;;9.82;4.22;;;;;;;;;;5003378;28;20112;-86
2021/03/18 10:29:50;;;;;;;8.02;4.70;;;;;;;;;;4994024;28;20068;-83
2021/03/18 10:32:36;;;;;;;7.43;4.20;;;;;;;;;;5015371;28;20038;-85
2021/03/18 10:35:22;;;;;;;10.85;5.57;;;;;;;;;;4985992;28;20026;-87
2021/03/18 10:38:10;;;;;;;8.43;5.13;;;;;;;;;;5011033;28;20461;-86
2021/03/18 10:40:56;;;;;;;8.10;4.65;;;;;;;;;;4994852;28;20080;-87
2021/03/18 10:43:43;;;;;;;8.02;4.60;;;;;;;;;;5005093;28;20029;-86
2021/03/18 10:46:30;;;;;;;7.63;3.70;;;;;;;;;;5015587;28;20041;-87
2021/03/18 10:49:15;;;;;;;9.85;4.35;;;;;;;;;;4987797;28;20033;-85
2021/03/18 10:52:00;;;;;;;7.07;4.15;;;;;;;;;;5001664;28;20018;-85
2021/03/18 10:54:46;;;;;;;5.18;3.30;;;;;;;;;;5015933;28;20815;-84
2021/03/18 10:57:31;;;;;;;51.50;31.88;;;;;;;;;;5000066;28;20044;-84
2021/03/18 11:00:21;;;;;;;8.10;4.47;;;;;;;;;;4992542;28;20469;-83
2021/03/18 11:03:08;;;;;;;4.65;3.08;;;;;;;;;;5003302;28;20034;-84
2021/03/18 11:05:53;;;;;;;5.95;3.28;;;;;;;;;;4998132;28;20603;-85
2021/03/18 11:08:40;;;;;;;7.50;3.63;;;;;;;;;;5018801;28;20025;-83
2021/03/18 11:11:27;;;;;;;8.18;3.50;;;;;;;;;;4988503;28;20025;-84
2021/03/18 11:14:13;;;;;;;10.90;4.30;;;;;;;;;;5001422;28;20048;-84
2021/03/18 11:17:05;;;;;;;8.95;4.18;;;;;;;;;;4992591;28;20107;-83
2021/03/18 11:19:50;;;;;;;9.43;3.72;;;;;;;;;;4997886;28;20058;-83
2021/03/18 11:22:35;;;;;;;9.40;3.80;;;;;;;;;;5017058;28;20037;-87
2021/03/18 11:25:21;;;;;;;10.18;4.25;;;;;;;;;;5004471;28;20489;-85
2021/03/18 11:28:12;;;;;;;8.55;4.68;;;;;;;;;;5012009;28;20029;-85
2021/03/18 11:30:58;;;;;;;8.73;3.80;;;;;;;;;;4985268;28;20072;-84
2021/03/18 11:33:43;;;;;;;8.52;4.95;;;;;;;;;;5002774;28;20452;-84
2021/03/18 11:36:29;;;;;;;6.68;3.72;;;;;;;;;;4989083;28;20033;-85
2021/03/18 11:39:15;;;;;;;5.85;3.28;;;;;;;;;;5016070;28;20473;-84
2021/03/18 11:42:01;;;;;;;6.05;3.42;;;;;;;;;;5004992;28;20377;-86
2021/03/18 11:44:49;;;;;;;9.75;3.42;;;;;;;;;;4987944;28;20445;-85
2021/03/18 11:47:34;;;;;;;6.85;3.45;;;;;;;;;;5000027;28;20041;-87
2021/03/18 11:50:20;;;;;;;3.78;3.22;;;;;;;;;;5001560;28;20138;-86
2021/03/18 11:53:05;;;;;;;6.78;3.42;;;;;;;;;;5001155;28;20033;-87
2021/03/18 11:55:51;;;;;;;5.75;3.22;;;;;;;;;;5009520;28;20029;-85
2021/03/18 11:58:37;;;;;;;9.18;3.47;;;;;;;;;;5017061;28;20747;-85
2021/03/18 12:01:22;;;;;;;7.95;3.83;;;;;;;;;;4988283;28;20068;-83
2021/03/18 12:04:07;;;;;;;6.68;3.88;;;;;;;;;;4998312;28;20025;-84
2021/03/18 12:06:52;;;;;;;7.53;4.20;;;;;;;;;;5004031;28;20062;-86
2021/03/18 12:09:38;;;;;;;9.23;4.35;;;;;;;;;;4972892;28;20038;-86
2021/03/18 12:12:23;;;;;;;8.00;4.93;;;;;;;;;;5013833;28;20022;-85
2021/03/18 12:15:10;;;;;;;5.30;3.33;;;;;;;;;;4987502;28;20085;-84
2021/03/18 12:17:55;;;;;;;8.35;4.70;;;;;;;;;;5008859;28;20036;-88
2021/03/18 12:20:41;;;;;;;5.00;3.03;;;;;;;;;;4997899;28;20053;-83
2021/03/18 12:23:26;;;;;;;5.00;3.10;;;;;;;;;;4994352;28;20040;-82
2021/03/18 12:26:11;;;;;;;5.75;3.53;;;;;;;;;;4984676;28;20025;-82
2021/03/18 12:28:57;;;;;;;7.68;3.60;;;;;;;;;;4989681;28;20341;-82
2021/03/18 12:31:42;;;;;;;10.13;5.30;;;;;;;;;;4986323;28;20033;-83
2021/03/18 12:34:27;;;;;;;7.85;4.95;;;;;;;;;;4992637;28;20049;-83
2021/03/18 12:37:14;;;;;;;14.13;5.70;;;;;;;;;;4993533;28;20671;-81
2021/03/18 12:40:00;;;;;;;8.90;4.82;;;;;;;;;;4992277;28;20456;-82
2021/03/18 12:42:45;;;;;;;9.57;4.70;;;;;;;;;;4994315;28;20030;-83
2021/03/18 12:45:33;;;;;;;8.70;4.70;;;;;;;;;;4998113;28;20025;-84
2021/03/18 12:48:18;;;;;;;11.05;5.32;;;;;;;;;;5012925;28;20049;-84
2021/03/18 12:51:04;;;;;;;11.75;5.10;;;;;;;;;;4995412;28;20030;-84
2021/03/18 12:53:49;;;;;;;12.73;4.75;;;;;;;;;;4992674;28;20077;-83
2021/03/18 12:56:34;;;;;;;12.68;4.80;;;;;;;;;;4985214;28;20026;-83
2021/03/18 12:59:20;;;;;;;7.63;4.53;;;;;;;;;;4989247;28;20018;-82
2021/03/18 13:02:06;;;;;;;7.85;3.72;;;;;;;;;;4998197;28;20629;-84
2021/03/18 13:04:51;;;;;;;8.73;4.05;;;;;;;;;;5005008;28;20092;-83
2021/03/18 13:07:37;;;;;;;6.82;4.20;;;;;;;;;;5000423;28;20030;-82
2021/03/18 13:10:22;;;;;;;6.75;3.95;;;;;;;;;;5000319;28;20030;-82
2021/03/18 13:13:08;;;;;;;7.40;4.00;;;;;;;;;;5001581;28;20453;-81
2021/03/18 13:15:53;;;;;;;9.68;4.40;;;;;;;;;;4990363;28;20010;-82
2021/03/18 13:18:38;;;;;;;6.40;4.13;;;;;;;;;;4984183;28;20219;-82
2021/03/18 13:21:24;;;;;;;6.40;4.25;;;;;;;;;;5001352;28;20038;-84
2021/03/18 13:24:09;;;;;;;5.95;4.10;;;;;;;;;;4999851;28;20022;-82
2021/03/18 13:26:55;;;;;;;8.90;4.35;;;;;;;;;;5010370;28;20030;-83
2021/03/18 13:29:40;;;;;;;8.73;3.50;;;;;;;;;;4991138;28;20076;-83
2021/03/18 13:32:26;;;;;;;9.13;4.00;;;;;;;;;;4978237;28;20095;-83
2021/03/18 13:35:14;;;;;;;8.13;4.55;;;;;;;;;;4994611;28;20473;-83
2021/03/18 13:38:00;;;;;;;5.72;3.80;;;;;;;;;;4994302;28;20117;-83
2021/03/18 13:40:47;;;;;;;12.10;7.45;;;;;;;;;;4998573;28;20164;-81
2021/03/18 13:43:33;;;;;;;8.93;4.40;;;;;;;;;;5020886;28;20048;-82
2021/03/18 13:46:19;;;;;;;6.80;3.70;;;;;;;;;;4999468;28;20037;-82
2021/03/18 13:49:04;;;;;;;6.70;3.85;;;;;;;;;;5002598;28;20048;-82
2021/03/18 13:51:50;;;;;;;10.73;4.28;;;;;;;;;;4995869;28;20026;-82
2021/03/18 13:54:36;;;;;;;8.85;3.97;;;;;;;;;;5001150;28;20030;-84
2021/03/18 13:57:21;;;;;;;8.45;4.78;;;;;;;;;;5014792;28;20338;-82
2021/03/18 14:00:07;;;;;;;8.18;4.07;;;;;;;;;;5012840;28;20385;-82
2021/03/18 14:02:53;;;;;;;7.13;4.03;;;;;;;;;;4996420;28;20200;-84
2021/03/18 14:05:39;;;;;;;6.72;4.38;;;;;;;;;;5010979;28;20045;-85
2021/03/18 14:08:24;;;;;;;8.23;3.75;;;;;;;;;;5008712;28;20041;-88
2021/03/18 14:11:13;;;;;;;5.97;3.45;;;;;;;;;;5001286;28;20033;-87
2021/03/18 14:13:58;;;;;;;6.75;3.83;;;;;;;;;;5008503;28;20113;-87
2021/03/18 14:16:46;;;;;;;6.40;3.72;;;;;;;;;;5002711;28;20061;-84
2021/03/18 14:19:32;;;;;;;6.28;3.38;;;;;;;;;;5009288;28;20123;-84
2021/03/18 14:22:18;;;;;;;4.45;3.15;;;;;;;;;;5008058;28;20425;-85
2021/03/18 14:25:04;;;;;;;6.20;3.65;;;;;;;;;;5018577;28;20112;-86
2021/03/18 14:27:50;;;;;;;6.90;3.60;;;;;;;;;;5001933;28;20022;-86
2021/03/18 14:30:39;;;;;;;49.00;32.22;;;;;;;;;;5007910;28;20375;-85
2021/03/18 14:33:24;;;;;;;4.60;3.28;;;;;;;;;;5008968;28;20114;-84
2021/03/18 14:36:10;;;;;;;5.43;2.78;;;;;;;;;;5016199;28;20046;-83
2021/03/18 14:38:58;;;;;;;8.40;4.20;;;;;;;;;;5001464;28;20491;-84
2021/03/18 14:41:44;;;;;;;5.18;3.20;;;;;;;;;;5005741;28;20080;-86
2021/03/18 14:44:29;;;;;;;6.00;4.00;;;;;;;;;;5007376;28;20117;-85
2021/03/18 14:47:15;;;;;;;9.23;2.97;;;;;;;;;;4990952;28;20028;-87
2021/03/18 14:50:01;;;;;;;7.47;3.05;;;;;;;;;;5001572;28;20701;-87
2021/03/18 14:52:46;;;;;;;4.75;2.60;;;;;;;;;;5010916;28;20018;-88
2021/03/18 14:55:31;;;;;;;5.45;2.65;;;;;;;;;;5017750;28;20581;-86
2021/03/18 14:58:18;;;;;;;6.25;2.53;;;;;;;;;;5002337;28;20018;-87
2021/03/18 15:42:05;;;;;;;9.07;4.37;;;;;;;;;;5636197;22;20466;-84
2021/03/18 15:44:50;;;;;;;8.93;3.17;;;;;;;;;;4980754;28;20788;-84
2021/03/18 15:47:36;;;;;;;5.97;3.63;;;;;;;;;;4989332;28;20022;-85
2021/03/18 15:50:21;;;;;;;10.13;4.07;;;;;;;;;;4975716;28;20741;-85
2021/03/18 15:53:14;;;;;;;9.93;3.83;;;;;;;;;;4985641;28;20021;-86
2021/03/18 15:55:59;;;;;;;7.32;3.67;;;;;;;;;;4985945;28;20412;-85
2021/03/18 15:58:44;;;;;;;8.43;3.92;;;;;;;;;;4999675;28;20023;-85
2021/03/18 16:01:30;;;;;;;7.47;3.35;;;;;;;;;;4981801;28;20496;-84
2021/03/18 16:04:15;;;;;;;6.43;3.53;;;;;;;;;;4975020;28;20095;-85
2021/03/18 16:07:01;;;;;;;5.50;3.10;;;;;;;;;;4970661;28;20727;-83
2021/03/18 16:09:46;;;;;;;7.05;3.75;;;;;;;;;;4969617;28;20143;-84
2021/03/18 16:12:32;;;;;;;7.05;3.25;;;;;;;;;;4979354;28;20034;-83
2021/03/18 16:15:21;;;;;;;11.40;4.13;;;;;;;;;;4976351;28;20120;-88
2021/03/18 16:18:07;;;;;;;7.50;3.70;;;;;;;;;;4993542;28;20121;-87
2021/03/18 16:20:57;;;;;;;5.57;3.30;;;;;;;;;;4998391;28;20069;-85
2021/03/18 16:23:42;;;;;;;14.30;7.30;;;;;;;;;;4998576;28;20142;-86
2021/03/18 16:26:28;;;;;;;17.20;10.25;;;;;;;;;;4995101;28;20026;-88
2021/03/18 16:29:14;;;;;;;8.25;3.90;;;;;;;;;;5007410;28;20102;-89
2021/03/18 16:32:00;;;;;;;4.15;2.80;;;;;;;;;;5000092;28;20085;-89
2021/03/18 16:34:46;;;;;;;4.90;2.78;;;;;;;;;;5009534;28;20121;-84
2021/03/18 16:37:32;;;;;;;4.38;2.65;;;;;;;;;;4986653;28;20089;-82
2021/03/18 16:40:18;;;;;;;6.00;3.35;;;;;;;;;;4982717;28;20120;-85
2021/03/18 16:43:03;;;;;;;6.28;3.13;;;;;;;;;;4982489;28;20085;-83
2021/03/18 16:45:49;;;;;;;8.48;3.15;;;;;;;;;;4990896;28;20018;-85
2021/03/18 16:48:35;;;;;;;8.98;3.08;;;;;;;;;;4984801;28;20030;-84
2021/03/18 16:51:20;;;;;;;9.00;2.95;;;;;;;;;;4974062;28;20504;-83
2021/03/18 16:54:05;;;;;;;4.57;2.63;;;;;;;;;;4976670;28;20033;-85
2021/03/18 16:56:51;;;;;;;8.02;2.67;;;;;;;;;;4987956;28;20049;-86
2021/03/18 16:59:37;;;;;;;5.60;3.05;;;;;;;;;;4975062;28;20113;-90
2021/03/18 17:02:23;;;;;;;6.78;2.97;;;;;;;;;;4989740;28;20050;-90
2021/03/18 17:05:08;;;;;;;6.28;2.60;;;;;;;;;;5014598;28;20042;-88
2021/03/18 17:08:00;;;;;;;7.43;3.33;;;;;;;;;;4991618;28;20022;-91
2021/03/18 17:10:48;;;;;;;9.30;2.95;;;;;;;;;;5000066;28;20056;-91
2021/03/18 17:13:34;;;;;;;5.38;2.63;;;;;;;;;;5014453;28;20041;-90
2021/03/18 17:16:20;;;;;;;6.97;2.75;;;;;;;;;;5015946;28;20561;-90
2021/03/18 17:19:08;;;;;;;6.80;3.35;;;;;;;;;;4995592;28;20027;-89
2021/03/18 17:22:00;;;;;;;4.97;3.03;;;;;;;;;;5012165;28;20034;-87
2021/03/18 17:24:47;;;;;;;7.65;3.08;;;;;;;;;;4994658;28;20073;-88
2021/03/18 17:28:01;;;;;;;54.00;34.45;;;;;;;;;;5016137;28;21739;-88